Time;durP1;ratioP1;P1;durP2;ratioP2;P2;SDS_P1;SDS_P2;PMS_P1;PMS_P2;Temp;Humidity;BMP_temperature;BMP_pressure;BME280_temperature;BME280_humidity;BME280_pressure;Samples;Min_cycle;Max_cycle;Signal;HPM_P1;HPM_P2
2023/12/07 00:00:19;;;;;;;10.13;6.57;;;2.60;99.90;;;;;;5073180;28;20036;-73
2023/12/07 00:02:44;;;;;;;9.10;6.50;;;2.60;99.90;;;;;;5072041;28;20072;-73
2023/12/07 00:05:10;;;;;;;9.63;6.43;;;2.70;99.90;;;;;;5071687;28;20494;-73
2023/12/07 00:07:35;;;;;;;12.55;6.72;;;2.70;99.90;;;;;;5074088;28;20040;-73
2023/12/07 00:10:01;;;;;;;10.73;6.20;;;2.70;99.90;;;;;;5075787;28;20045;-73
2023/12/07 00:12:27;;;;;;;9.45;6.55;;;2.80;99.90;;;;;;5075830;28;20068;-73
2023/12/07 00:14:52;;;;;;;8.73;6.05;;;2.80;99.90;;;;;;5076032;28;20036;-73
2023/12/07 00:17:18;;;;;;;9.45;6.38;;;2.90;99.90;;;;;;5075648;28;20083;-73
2023/12/07 00:19:44;;;;;;;9.32;6.43;;;2.90;99.90;;;;;;5077130;28;20045;-73
2023/12/07 00:22:10;;;;;;;8.57;6.57;;;2.90;99.90;;;;;;5058735;28;20041;-73
2023/12/07 00:24:35;;;;;;;7.88;6.00;;;2.90;99.90;;;;;;5077169;28;20032;-73
2023/12/07 00:27:01;;;;;;;9.63;6.82;;;2.90;99.90;;;;;;5075561;28;20127;-73
2023/12/07 00:29:26;;;;;;;9.77;6.22;;;2.90;99.90;;;;;;5075427;28;20040;-73
2023/12/07 00:31:52;;;;;;;10.98;6.20;;;2.90;99.90;;;;;;5075447;28;20094;-73
2023/12/07 00:34:18;;;;;;;9.02;6.88;;;3.00;99.90;;;;;;5076896;28;20098;-73
2023/12/07 00:36:44;;;;;;;11.05;6.80;;;2.90;99.90;;;;;;5075624;28;20037;-73
2023/12/07 00:39:10;;;;;;;10.25;6.75;;;2.90;99.90;;;;;;5075252;28;20106;-73
2023/12/07 00:41:35;;;;;;;10.68;6.22;;;3.00;99.90;;;;;;5058832;28;20040;-73
2023/12/07 00:44:01;;;;;;;10.82;7.40;;;3.00;99.90;;;;;;5076710;28;20477;-73
2023/12/07 00:46:26;;;;;;;11.43;6.60;;;3.00;99.90;;;;;;5076616;28;20044;-73
2023/12/07 00:48:52;;;;;;;10.38;6.20;;;3.00;99.90;;;;;;5076583;28;20045;-73
2023/12/07 00:51:18;;;;;;;10.27;6.68;;;3.10;99.90;;;;;;5075505;28;20036;-73
2023/12/07 00:53:43;;;;;;;11.10;6.80;;;3.10;99.90;;;;;;5075002;28;20461;-73
2023/12/07 00:56:09;;;;;;;12.63;7.25;;;3.10;99.90;;;;;;5075192;28;20039;-73
2023/12/07 00:58:36;;;;;;;10.20;7.10;;;3.10;99.90;;;;;;5074931;28;20045;-73
2023/12/07 01:01:03;;;;;;;11.50;8.05;;;3.10;99.90;;;;;;5076337;28;20111;-73
2023/12/07 01:03:29;;;;;;;10.50;7.53;;;3.10;99.90;;;;;;5074823;28;20477;-73
2023/12/07 01:05:54;;;;;;;11.07;7.30;;;3.20;99.90;;;;;;5076295;28;20086;-73
2023/12/07 01:08:20;;;;;;;11.18;7.68;;;3.20;99.90;;;;;;5074733;28;20393;-73
2023/12/07 01:10:45;;;;;;;10.73;7.40;;;3.10;99.90;;;;;;5074630;28;20071;-73
2023/12/07 01:13:11;;;;;;;9.73;6.78;;;3.10;99.90;;;;;;5074952;28;20041;-73
2023/12/07 01:15:36;;;;;;;11.85;7.40;;;3.20;99.90;;;;;;5075978;28;20552;-73
2023/12/07 01:18:03;;;;;;;10.32;7.65;;;3.10;99.90;;;;;;5076098;28;20043;-72
2023/12/07 01:20:28;;;;;;;15.05;8.32;;;3.10;99.90;;;;;;5074430;28;20076;-73
2023/12/07 01:22:54;;;;;;;11.45;9.02;;;3.00;99.90;;;;;;5074310;28;20071;-73
2023/12/07 01:25:21;;;;;;;13.85;8.43;;;3.00;99.90;;;;;;5075932;28;20036;-73
2023/12/07 01:27:48;;;;;;;12.60;8.57;;;3.00;99.90;;;;;;5075873;28;20102;-73
2023/12/07 01:30:14;;;;;;;11.80;8.48;;;3.00;99.90;;;;;;5074574;28;20072;-73
2023/12/07 01:32:40;;;;;;;11.13;8.40;;;3.00;99.90;;;;;;5074348;28;20453;-73
2023/12/07 01:35:06;;;;;;;12.32;8.48;;;3.00;99.90;;;;;;5075416;28;20048;-73
2023/12/07 01:37:32;;;;;;;10.77;8.18;;;2.90;99.90;;;;;;5074529;28;20104;-73
2023/12/07 01:39:57;;;;;;;10.23;8.20;;;2.90;99.90;;;;;;5075606;28;20173;-73
2023/12/07 01:42:23;;;;;;;11.68;8.30;;;3.00;99.90;;;;;;5074136;28;20028;-73
2023/12/07 01:44:49;;;;;;;11.63;8.32;;;2.90;99.90;;;;;;5074295;28;20094;-73
2023/12/07 01:47:15;;;;;;;11.43;9.07;;;2.90;99.90;;;;;;5074349;28;20516;-73
2023/12/07 01:49:41;;;;;;;13.00;8.68;;;2.90;99.90;;;;;;5075434;28;20059;-73
2023/12/07 01:52:08;;;;;;;11.95;10.13;;;2.80;99.90;;;;;;5075472;28;20098;-73
2023/12/07 01:54:34;;;;;;;13.25;10.32;;;2.90;99.90;;;;;;5073917;28;20083;-73
2023/12/07 01:57:00;;;;;;;14.48;10.57;;;2.90;99.90;;;;;;5075277;28;20043;-73
2023/12/07 01:59:25;;;;;;;15.70;11.40;;;2.80;99.90;;;;;;5057086;28;20048;-73
2023/12/07 02:01:51;;;;;;;14.20;11.52;;;2.80;99.90;;;;;;5073703;28;20063;-73
2023/12/07 02:04:17;;;;;;;12.25;10.38;;;2.80;99.90;;;;;;5073736;28;20037;-73
2023/12/07 02:06:43;;;;;;;13.82;11.43;;;2.80;99.90;;;;;;5057023;28;20044;-73
2023/12/07 02:09:09;;;;;;;12.93;10.52;;;2.80;99.90;;;;;;5056958;28;20047;-73
2023/12/07 02:11:35;;;;;;;13.85;10.98;;;2.70;99.90;;;;;;5057194;28;20448;-73
2023/12/07 02:14:01;;;;;;;14.25;10.77;;;2.70;99.90;;;;;;5056877;28;20515;-73
2023/12/07 02:16:52;;;;;;;12.95;10.73;;;2.70;99.90;;;;;;5073380;28;20044;-73
2023/12/07 02:19:26;;;;;;;15.40;12.13;;;2.70;99.90;;;;;;5074323;28;20045;-73
2023/12/07 02:21:59;;;;;;;13.77;11.00;;;2.60;99.90;;;;;;5074742;28;20032;-73
2023/12/07 02:24:28;;;;;;;14.38;10.40;;;2.60;99.90;;;;;;5074812;28;20032;-73
2023/12/07 02:26:54;;;;;;;17.67;11.73;;;2.60;99.90;;;;;;5073220;28;20082;-73
2023/12/07 02:29:19;;;;;;;15.13;11.38;;;2.50;99.90;;;;;;5073099;28;20048;-73
2023/12/07 02:31:45;;;;;;;14.75;12.30;;;2.50;99.90;;;;;;5074105;28;20040;-73
2023/12/07 02:34:11;;;;;;;18.33;12.98;;;2.30;99.90;;;;;;5056712;28;20194;-73
2023/12/07 02:36:38;;;;;;;15.27;12.25;;;2.30;99.90;;;;;;5074474;28;20504;-73
2023/12/07 02:39:06;;;;;;;16.15;11.98;;;2.20;99.90;;;;;;5074515;28;20025;-73
2023/12/07 02:41:33;;;;;;;18.70;12.35;;;2.20;99.90;;;;;;5074453;28;20524;-73
2023/12/07 02:43:59;;;;;;;17.30;12.68;;;2.20;99.90;;;;;;5074461;28;20112;-73
2023/12/07 02:46:26;;;;;;;18.10;13.30;;;2.10;99.90;;;;;;5072823;28;20076;-73
2023/12/07 02:48:51;;;;;;;19.75;13.45;;;2.10;99.90;;;;;;5074044;28;20413;-73
2023/12/07 02:51:17;;;;;;;17.52;13.02;;;2.10;99.90;;;;;;5072708;28;20048;-73
2023/12/07 02:53:43;;;;;;;18.73;14.30;;;2.00;99.90;;;;;;5056117;28;20079;-73
2023/12/07 02:56:08;;;;;;;19.15;13.32;;;2.00;99.90;;;;;;5055952;28;20040;-73
2023/12/07 02:58:34;;;;;;;17.77;13.48;;;2.10;99.90;;;;;;5072884;28;20127;-73
2023/12/07 03:00:59;;;;;;;16.10;12.35;;;2.10;99.90;;;;;;5074042;28;20548;-73
2023/12/07 03:03:25;;;;;;;16.02;13.25;;;2.00;99.90;;;;;;5072764;28;20037;-73
2023/12/07 03:05:51;;;;;;;17.23;12.35;;;1.90;99.90;;;;;;5072770;28;20090;-73
2023/12/07 03:08:16;;;;;;;17.73;13.35;;;1.90;99.90;;;;;;5073640;28;20489;-73
2023/12/07 03:10:42;;;;;;;17.33;12.80;;;1.90;99.90;;;;;;5073876;28;20062;-73
2023/12/07 03:13:08;;;;;;;17.83;12.80;;;1.90;99.90;;;;;;5072674;28;20055;-73
2023/12/07 03:15:33;;;;;;;17.02;13.32;;;1.90;99.90;;;;;;5073795;28;20450;-73
2023/12/07 03:17:59;;;;;;;16.77;11.55;;;1.90;99.90;;;;;;5072556;28;20028;-73
2023/12/07 03:20:24;;;;;;;17.25;13.32;;;2.00;99.90;;;;;;5055550;28;20569;-73
2023/12/07 03:22:50;;;;;;;18.90;12.93;;;1.90;99.90;;;;;;5073277;28;20036;-73
2023/12/07 03:25:16;;;;;;;16.15;12.55;;;2.00;99.90;;;;;;5072197;28;20118;-73
2023/12/07 03:27:41;;;;;;;18.35;12.70;;;2.00;99.90;;;;;;5073654;28;20028;-73
2023/12/07 03:30:07;;;;;;;20.63;13.88;;;2.00;99.90;;;;;;5072334;28;20066;-72
2023/12/07 03:32:33;;;;;;;18.27;13.30;;;2.00;99.90;;;;;;5072354;28;20036;-72
2023/12/07 03:34:58;;;;;;;20.48;13.70;;;2.00;99.90;;;;;;5072102;28;20489;-72
2023/12/07 03:37:24;;;;;;;22.58;12.95;;;2.00;99.90;;;;;;5071923;28;20037;-72
2023/12/07 03:39:49;;;;;;;17.45;13.35;;;2.00;99.90;;;;;;5073180;28;20041;-72
2023/12/07 03:42:15;;;;;;;16.75;13.43;;;2.00;99.90;;;;;;5071162;28;20047;-72
2023/12/07 03:44:40;;;;;;;19.08;14.10;;;2.00;99.90;;;;;;5071983;28;20071;-72
2023/12/07 03:47:06;;;;;;;17.13;13.48;;;1.90;99.90;;;;;;5071932;28;20050;-72
2023/12/07 03:49:32;;;;;;;19.90;14.00;;;1.90;99.90;;;;;;5055160;28;20037;-72
2023/12/07 03:51:57;;;;;;;18.70;13.95;;;1.80;99.90;;;;;;5055247;28;20041;-72
2023/12/07 03:54:23;;;;;;;19.08;14.02;;;1.80;99.90;;;;;;5071855;28;20124;-72
2023/12/07 03:56:48;;;;;;;18.88;13.57;;;1.80;99.90;;;;;;5071913;28;20033;-72
2023/12/07 03:59:15;;;;;;;20.35;14.68;;;1.70;99.90;;;;;;5071806;28;20572;-72
2023/12/07 04:01:40;;;;;;;19.67;13.98;;;1.70;99.90;;;;;;5071870;28;20127;-72
2023/12/07 04:04:06;;;;;;;19.42;14.05;;;1.70;99.90;;;;;;5073353;28;20123;-72
2023/12/07 04:06:32;;;;;;;28.77;14.10;;;1.60;99.90;;;;;;5073264;28;20040;-72
2023/12/07 04:08:57;;;;;;;19.50;14.60;;;1.60;99.90;;;;;;5071752;28;20052;-72
2023/12/07 04:11:23;;;;;;;23.75;15.38;;;1.60;99.90;;;;;;5071699;28;20044;-72
2023/12/07 04:13:48;;;;;;;17.75;13.77;;;1.50;99.90;;;;;;5073216;28;20044;-72
2023/12/07 04:16:14;;;;;;;21.42;14.45;;;1.50;99.90;;;;;;5073114;28;20044;-72
2023/12/07 04:18:40;;;;;;;23.30;15.95;;;1.40;99.90;;;;;;5054927;28;20040;-72
2023/12/07 04:21:06;;;;;;;24.13;14.18;;;1.40;99.90;;;;;;5074025;28;20047;-72
2023/12/07 04:23:31;;;;;;;26.17;16.00;;;1.30;99.90;;;;;;5071516;28;20409;-71
2023/12/07 04:25:57;;;;;;;26.42;16.52;;;1.30;99.90;;;;;;5071590;28;20155;-72
2023/12/07 04:28:23;;;;;;;28.42;17.25;;;1.30;99.90;;;;;;5072734;28;20072;-72
2023/12/07 04:30:48;;;;;;;30.10;18.52;;;1.20;99.90;;;;;;5071494;28;20043;-72
2023/12/07 04:33:14;;;;;;;27.25;18.40;;;1.20;99.90;;;;;;5071521;28;20040;-72
2023/12/07 04:35:40;;;;;;;29.60;18.48;;;1.30;99.90;;;;;;5071374;28;20074;-72
2023/12/07 04:38:05;;;;;;;37.88;19.30;;;1.30;99.90;;;;;;5073012;28;20040;-72
2023/12/07 04:40:31;;;;;;;34.28;20.25;;;1.30;99.90;;;;;;5071614;28;20048;-72
2023/12/07 04:42:56;;;;;;;27.45;19.02;;;1.30;99.90;;;;;;5071429;28;20393;-72
2023/12/07 04:45:22;;;;;;;31.92;20.00;;;1.30;99.90;;;;;;5072592;28;20033;-72
2023/12/07 04:47:47;;;;;;;30.90;20.30;;;1.30;99.90;;;;;;5071392;28;20081;-72
2023/12/07 04:50:14;;;;;;;27.23;18.48;;;1.30;99.90;;;;;;5071273;28;20066;-72
2023/12/07 04:52:39;;;;;;;32.03;20.85;;;1.30;99.90;;;;;;5071339;28;20071;-72
2023/12/07 04:55:06;;;;;;;33.60;20.80;;;1.30;99.90;;;;;;5074281;28;20068;-72
2023/12/07 04:57:33;;;;;;;32.95;20.20;;;1.30;99.90;;;;;;5074908;28;20045;-72
2023/12/07 04:59:59;;;;;;;32.85;20.40;;;1.30;99.90;;;;;;5074831;28;20036;-72
2023/12/07 05:02:24;;;;;;;31.20;19.90;;;1.20;99.90;;;;;;5074890;28;20143;-72
2023/12/07 05:04:50;;;;;;;33.55;21.10;;;1.20;99.90;;;;;;5074803;28;20079;-73
2023/12/07 05:07:16;;;;;;;34.72;21.13;;;1.20;99.90;;;;;;5074799;28;20052;-73
2023/12/07 05:09:42;;;;;;;28.52;18.92;;;1.20;99.90;;;;;;5076222;28;20048;-73
2023/12/07 05:12:08;;;;;;;29.10;19.73;;;1.20;99.90;;;;;;5074703;28;20044;-73
2023/12/07 05:14:34;;;;;;;27.70;19.52;;;1.20;99.90;;;;;;5074690;28;20040;-73
2023/12/07 05:17:00;;;;;;;30.30;20.23;;;1.30;99.90;;;;;;5076051;28;20090;-73
2023/12/07 05:19:26;;;;;;;27.45;19.35;;;1.30;99.90;;;;;;5074467;28;20040;-73
2023/12/07 05:21:52;;;;;;;30.02;19.40;;;1.30;99.90;;;;;;5058053;28;20036;-73
2023/12/07 05:24:18;;;;;;;28.52;19.25;;;1.40;99.90;;;;;;5076021;28;20119;-73
2023/12/07 05:26:48;;;;;;;28.58;19.95;;;1.30;99.90;;;;;;5074488;28;20132;-73
2023/12/07 05:29:14;;;;;;;29.38;19.70;;;1.30;99.90;;;;;;5074366;28;20410;-73
2023/12/07 05:31:40;;;;;;;29.13;19.58;;;1.40;99.90;;;;;;5075866;28;20032;-73
2023/12/07 05:34:07;;;;;;;27.23;18.77;;;1.40;99.90;;;;;;5075893;28;20041;-73
2023/12/07 05:36:33;;;;;;;26.88;19.08;;;1.30;99.90;;;;;;5057630;28;20471;-73
2023/12/07 05:38:58;;;;;;;28.35;20.08;;;1.40;99.90;;;;;;5075784;28;20048;-73
2023/12/07 05:41:25;;;;;;;24.48;17.75;;;1.30;99.90;;;;;;5074467;28;20043;-73
2023/12/07 05:43:52;;;;;;;25.08;18.38;;;1.40;99.90;;;;;;5075668;28;20032;-72
2023/12/07 05:46:18;;;;;;;31.92;20.33;;;1.30;99.90;;;;;;5057440;28;20127;-72
2023/12/07 05:48:44;;;;;;;26.58;18.33;;;1.30;99.90;;;;;;5074098;28;20047;-72
2023/12/07 05:51:14;;;;;;;22.38;17.05;;;1.20;99.90;;;;;;5075476;28;20041;-72
2023/12/07 05:53:40;;;;;;;29.30;18.77;;;1.20;99.90;;;;;;5074230;28;20052;-72
2023/12/07 05:56:06;;;;;;;27.05;18.42;;;1.10;99.90;;;;;;5074075;28;20044;-72
2023/12/07 05:58:32;;;;;;;28.48;19.92;;;1.10;99.90;;;;;;5074111;28;20036;-72
2023/12/07 06:00:59;;;;;;;25.25;18.77;;;1.00;99.90;;;;;;5073780;28;20562;-72
2023/12/07 06:03:25;;;;;;;26.98;18.50;;;1.10;99.90;;;;;;5074927;28;20040;-72
2023/12/07 06:05:51;;;;;;;30.80;20.17;;;1.10;99.90;;;;;;5072791;28;20136;-72
2023/12/07 06:08:17;;;;;;;24.83;18.33;;;1.00;99.90;;;;;;5057263;28;20052;-72
2023/12/07 06:10:42;;;;;;;27.90;18.23;;;1.00;99.90;;;;;;5073810;28;20462;-72
2023/12/07 06:13:08;;;;;;;24.80;17.60;;;1.00;99.90;;;;;;5073849;28;20068;-72
2023/12/07 06:15:34;;;;;;;25.77;18.25;;;1.00;99.90;;;;;;5074994;28;20419;-72
2023/12/07 06:17:59;;;;;;;27.25;17.98;;;1.00;99.90;;;;;;5075008;28;20036;-72
2023/12/07 06:20:25;;;;;;;24.90;17.35;;;1.00;99.90;;;;;;5074964;28;20040;-72
2023/12/07 06:22:51;;;;;;;23.25;16.40;;;1.00;99.90;;;;;;5074456;28;20040;-72
2023/12/07 06:25:16;;;;;;;22.95;16.77;;;0.90;99.90;;;;;;5074860;28;20061;-73
2023/12/07 06:27:42;;;;;;;24.10;18.05;;;1.00;99.90;;;;;;5073374;28;20481;-73
2023/12/07 06:30:08;;;;;;;24.90;17.80;;;1.00;99.90;;;;;;5074396;28;20089;-72
2023/12/07 06:32:34;;;;;;;22.98;16.55;;;1.00;99.90;;;;;;5073193;28;20072;-72
2023/12/07 06:35:00;;;;;;;28.90;18.70;;;0.90;99.90;;;;;;5073138;28;20075;-72
2023/12/07 06:37:26;;;;;;;27.55;18.15;;;1.00;99.90;;;;;;5074546;28;20036;-72
2023/12/07 06:39:51;;;;;;;26.27;17.92;;;0.90;99.90;;;;;;5074513;28;20034;-71
2023/12/07 06:42:17;;;;;;;26.70;16.77;;;0.90;99.90;;;;;;5073046;28;20044;-72
2023/12/07 06:44:51;;;;;;;22.70;16.33;;;0.90;99.90;;;;;;5072918;28;20060;-75
2023/12/07 06:47:18;;;;;;;23.88;17.00;;;0.80;99.90;;;;;;5074435;28;20041;-70
2023/12/07 06:49:43;;;;;;;23.40;16.65;;;0.80;99.90;;;;;;5073127;28;20045;-70
2023/12/07 06:52:10;;;;;;;22.48;15.68;;;0.80;99.90;;;;;;5074306;28;20047;-70
2023/12/07 06:54:37;;;;;;;31.35;16.90;;;0.80;99.90;;;;;;5072735;28;20044;-70
2023/12/07 06:57:02;;;;;;;22.42;16.30;;;0.80;99.90;;;;;;5074163;28;20115;-70
2023/12/07 06:59:28;;;;;;;23.58;16.50;;;0.70;99.90;;;;;;5074113;28;20095;-70
2023/12/07 07:01:54;;;;;;;22.58;16.25;;;0.70;99.90;;;;;;5072588;28;20044;-70
2023/12/07 07:04:19;;;;;;;24.10;17.63;;;0.70;99.90;;;;;;5072531;28;20116;-70
2023/12/07 07:06:45;;;;;;;23.83;17.10;;;0.70;99.90;;;;;;5074186;28;20076;-70
2023/12/07 07:09:12;;;;;;;23.48;17.52;;;0.70;99.90;;;;;;5072633;28;20123;-70
2023/12/07 07:11:38;;;;;;;24.38;17.75;;;0.70;99.90;;;;;;5072497;28;20044;-70
2023/12/07 07:14:04;;;;;;;32.45;20.75;;;0.80;99.90;;;;;;5073849;28;20043;-70
2023/12/07 07:16:30;;;;;;;25.65;17.98;;;0.80;99.90;;;;;;5072355;28;20500;-70
2023/12/07 07:18:56;;;;;;;31.02;18.92;;;0.80;99.90;;;;;;5072330;28;20107;-70
2023/12/07 07:21:21;;;;;;;26.23;18.48;;;0.80;99.90;;;;;;5073623;28;20032;-70
2023/12/07 07:23:47;;;;;;;30.55;19.67;;;0.80;99.90;;;;;;5072458;28;20537;-70
2023/12/07 07:26:16;;;;;;;26.35;19.27;;;0.80;99.90;;;;;;5073725;28;20481;-70
2023/12/07 07:28:45;;;;;;;26.80;18.67;;;0.80;99.90;;;;;;5072438;28;20044;-70
2023/12/07 07:31:11;;;;;;;29.48;20.40;;;0.80;99.90;;;;;;5073317;28;20484;-70
2023/12/07 07:33:37;;;;;;;25.60;18.83;;;0.80;99.90;;;;;;5072103;28;20178;-70
2023/12/07 07:36:02;;;;;;;26.95;19.33;;;0.80;99.90;;;;;;5072021;28;20052;-70
2023/12/07 07:38:28;;;;;;;25.42;19.52;;;0.70;99.90;;;;;;5072044;28;20044;-70
2023/12/07 07:40:54;;;;;;;27.73;20.05;;;0.70;99.90;;;;;;5072011;28;20032;-70
2023/12/07 07:43:19;;;;;;;29.88;20.55;;;0.80;99.90;;;;;;5071996;28;20040;-69
2023/12/07 07:45:45;;;;;;;30.02;20.52;;;0.80;99.90;;;;;;5072209;28;20044;-69
2023/12/07 07:48:12;;;;;;;33.08;20.85;;;0.80;99.90;;;;;;5071941;28;20040;-69
2023/12/07 07:50:37;;;;;;;29.08;20.10;;;0.80;99.90;;;;;;5071847;28;20053;-70
2023/12/07 07:53:03;;;;;;;30.08;20.00;;;0.80;99.90;;;;;;5055429;28;20086;-69
2023/12/07 07:55:30;;;;;;;28.38;20.63;;;0.80;99.90;;;;;;5072984;28;20040;-71
2023/12/07 07:57:55;;;;;;;27.35;20.08;;;0.90;99.90;;;;;;5071854;28;20116;-69
2023/12/07 08:00:21;;;;;;;31.20;20.50;;;0.90;99.90;;;;;;5071727;28;20120;-69
2023/12/07 08:02:47;;;;;;;24.90;19.70;;;0.90;99.90;;;;;;5071849;28;20036;-69
2023/12/07 08:05:13;;;;;;;27.98;19.65;;;0.90;99.90;;;;;;5073306;28;20041;-69
2023/12/07 08:07:40;;;;;;;28.77;20.48;;;0.90;99.90;;;;;;5071779;28;20569;-69
2023/12/07 08:10:06;;;;;;;30.23;21.27;;;0.90;99.90;;;;;;5071699;28;20040;-69
2023/12/07 08:12:33;;;;;;;31.08;21.95;;;0.90;99.90;;;;;;5071678;28;20048;-69
2023/12/07 08:14:59;;;;;;;30.85;20.13;;;1.00;99.90;;;;;;5073205;28;20064;-69
2023/12/07 08:17:26;;;;;;;29.65;21.67;;;1.00;99.90;;;;;;5071649;28;20485;-69
2023/12/07 08:19:52;;;;;;;29.15;21.25;;;1.00;99.90;;;;;;5071558;28;20086;-70
2023/12/07 08:22:17;;;;;;;31.98;20.83;;;1.00;99.90;;;;;;5072871;28;20055;-70
2023/12/07 08:24:43;;;;;;;29.65;20.38;;;1.00;99.90;;;;;;5071595;28;20037;-70
2023/12/07 08:27:09;;;;;;;30.75;20.40;;;1.10;99.90;;;;;;5073160;28;20059;-69
2023/12/07 08:29:36;;;;;;;27.90;19.45;;;1.10;99.90;;;;;;5057210;28;20405;-70
2023/12/07 08:32:02;;;;;;;29.90;21.35;;;1.20;99.90;;;;;;5077043;28;20051;-69
2023/12/07 08:34:29;;;;;;;27.15;20.30;;;1.20;99.90;;;;;;5075458;28;20048;-69
2023/12/07 08:36:54;;;;;;;30.08;20.40;;;1.20;99.90;;;;;;5075395;28;20044;-69
2023/12/07 08:39:20;;;;;;;27.52;20.30;;;1.20;99.90;;;;;;5076451;28;20461;-69
2023/12/07 08:41:46;;;;;;;25.80;19.67;;;1.30;99.90;;;;;;5075279;28;20036;-69
2023/12/07 08:44:12;;;;;;;27.67;20.20;;;1.30;99.90;;;;;;5075241;28;20036;-69
2023/12/07 08:46:37;;;;;;;27.10;19.48;;;1.20;99.90;;;;;;5076675;28;20047;-69
2023/12/07 08:49:03;;;;;;;26.42;18.73;;;1.20;99.90;;;;;;5075086;28;20123;-69
2023/12/07 08:51:29;;;;;;;30.45;20.85;;;1.20;99.90;;;;;;5074946;28;20043;-70
2023/12/07 08:53:55;;;;;;;24.85;19.27;;;1.20;99.90;;;;;;5075331;28;20040;-70
2023/12/07 08:56:21;;;;;;;30.10;20.60;;;1.30;99.90;;;;;;5074887;28;20485;-70
2023/12/07 08:58:46;;;;;;;27.42;20.35;;;1.30;99.90;;;;;;5076483;28;20043;-70
2023/12/07 09:01:12;;;;;;;30.75;20.50;;;1.20;99.90;;;;;;5074861;28;20036;-70
2023/12/07 09:03:37;;;;;;;30.75;21.98;;;1.20;99.90;;;;;;5074879;28;20044;-70
2023/12/07 09:06:05;;;;;;;30.85;20.45;;;1.20;99.90;;;;;;5074833;28;20037;-70
2023/12/07 09:08:30;;;;;;;30.65;21.33;;;1.30;99.90;;;;;;5076271;28;20052;-70
2023/12/07 09:10:56;;;;;;;32.70;21.08;;;1.30;99.90;;;;;;5076217;28;20040;-70
2023/12/07 09:13:21;;;;;;;33.35;22.42;;;1.30;99.90;;;;;;5076238;28;20135;-70
2023/12/07 09:15:47;;;;;;;29.25;21.70;;;1.30;99.90;;;;;;5076104;28;20556;-70
2023/12/07 09:18:13;;;;;;;34.53;23.20;;;1.30;99.90;;;;;;5074620;28;20036;-70
2023/12/07 09:20:45;;;;;;;29.15;21.05;;;1.30;99.90;;;;;;5076087;28;20097;-70
2023/12/07 09:23:15;;;;;;;32.75;22.05;;;1.40;99.90;;;;;;5074426;28;20481;-70
2023/12/07 09:25:41;;;;;;;33.50;22.05;;;1.30;99.90;;;;;;5074501;28;20041;-70
2023/12/07 09:28:07;;;;;;;33.50;22.08;;;1.40;99.90;;;;;;5076018;28;20044;-70
2023/12/07 09:30:33;;;;;;;35.88;24.73;;;1.40;99.90;;;;;;5075810;28;20489;-70
2023/12/07 09:32:59;;;;;;;36.50;23.50;;;1.50;99.90;;;;;;5074393;28;20049;-70
2023/12/07 09:35:25;;;;;;;34.22;24.10;;;1.50;99.90;;;;;;5074513;28;20114;-70
2023/12/07 09:37:51;;;;;;;32.67;24.10;;;1.50;99.90;;;;;;5075831;28;20044;-70
2023/12/07 09:40:17;;;;;;;39.28;25.27;;;1.50;99.90;;;;;;5074293;28;20397;-70
2023/12/07 09:42:43;;;;;;;35.20;23.92;;;1.60;99.90;;;;;;5075395;28;20489;-70
2023/12/07 09:45:09;;;;;;;34.15;22.65;;;1.60;99.90;;;;;;5075668;28;20048;-70
2023/12/07 09:47:37;;;;;;;36.30;23.80;;;1.70;99.90;;;;;;5074139;28;20044;-69
2023/12/07 09:50:05;;;;;;;33.47;23.40;;;1.70;99.90;;;;;;5075267;28;20485;-69
2023/12/07 09:52:31;;;;;;;34.05;23.90;;;1.80;99.90;;;;;;5074060;28;20052;-69
2023/12/07 09:54:57;;;;;;;47.13;24.75;;;1.90;99.90;;;;;;5074246;28;20041;-70
2023/12/07 09:57:23;;;;;;;52.10;23.45;;;1.90;99.90;;;;;;5073873;28;20036;-70
2023/12/07 09:59:48;;;;;;;149.07;25.05;;;1.90;99.90;;;;;;5074016;28;20032;-70
2023/12/07 10:02:14;;;;;;;173.20;25.88;;;1.90;99.90;;;;;;5073836;28;20036;-70
2023/12/07 10:04:39;;;;;;;222.77;27.13;;;1.80;99.90;;;;;;5073800;28;20036;-70
2023/12/07 10:07:08;;;;;;;189.73;25.02;;;1.80;99.90;;;;;;5074044;28;20075;-70
2023/12/07 10:09:40;;;;;;;122.05;23.30;;;1.60;99.90;;;;;;5075141;28;20094;-70
2023/12/07 10:12:07;;;;;;;238.20;22.67;;;1.70;99.90;;;;;;5073661;28;20473;-70
2023/12/07 10:14:33;;;;;;;110.95;18.60;;;1.60;99.90;;;;;;5073834;28;20044;-70
2023/12/07 10:16:59;;;;;;;212.02;22.95;;;1.60;99.90;;;;;;5073528;28;20040;-69
2023/12/07 10:19:27;;;;;;;139.45;20.52;;;1.50;99.90;;;;;;5075059;28;20040;-69
2023/12/07 10:21:53;;;;;;;141.55;19.88;;;1.50;99.90;;;;;;5073741;28;20036;-69
2023/12/07 10:24:21;;;;;;;92.18;18.23;;;1.50;99.90;;;;;;5073909;28;20083;-69
2023/12/07 10:26:48;;;;;;;115.03;17.83;;;1.50;99.90;;;;;;5073726;28;20044;-69
2023/12/07 10:29:14;;;;;;;145.65;19.88;;;1.40;99.90;;;;;;5074418;28;20497;-69
2023/12/07 10:31:39;;;;;;;79.63;18.65;;;1.40;99.90;;;;;;5073480;28;20040;-70
2023/12/07 10:34:07;;;;;;;144.32;20.23;;;1.40;99.90;;;;;;5073151;28;20456;-70
2023/12/07 10:36:33;;;;;;;137.63;19.00;;;1.50;99.90;;;;;;5074590;28;20106;-70
2023/12/07 10:38:59;;;;;;;77.47;16.85;;;1.50;99.90;;;;;;5074820;28;20481;-70
2023/12/07 10:41:25;;;;;;;102.43;16.13;;;1.40;99.90;;;;;;5072952;28;20041;-70
2023/12/07 10:43:59;;;;;;;76.55;16.33;;;1.40;99.90;;;;;;5072976;28;20410;-70
2023/12/07 10:46:26;;;;;;;111.20;16.92;;;1.40;99.90;;;;;;5072928;28;20045;-70
2023/12/07 10:48:57;;;;;;;57.78;14.05;;;1.40;99.90;;;;;;5072873;28;20469;-70
2023/12/07 10:51:41;;;;;;;62.42;15.10;;;1.40;99.90;;;;;;5073907;28;20040;-69
2023/12/07 10:54:08;;;;;;;123.97;17.58;;;1.40;99.90;;;;;;5073084;28;20097;-69
2023/12/07 10:56:44;;;;;;;137.63;18.48;;;1.40;99.90;;;;;;5072624;28;20048;-70
2023/12/07 10:59:11;;;;;;;66.90;15.27;;;1.40;99.90;;;;;;5073040;28;20049;-70
2023/12/07 11:01:39;;;;;;;59.97;15.95;;;1.30;99.90;;;;;;5072657;28;20048;-70
2023/12/07 11:04:06;;;;;;;79.93;16.35;;;1.40;99.90;;;;;;5072908;28;20045;-70
2023/12/07 11:06:35;;;;;;;128.55;18.30;;;1.40;99.90;;;;;;5073827;28;20401;-70
2023/12/07 11:09:06;;;;;;;64.93;16.00;;;1.40;99.90;;;;;;5073967;28;20059;-69
2023/12/07 11:11:40;;;;;;;97.13;17.55;;;1.30;99.90;;;;;;5073951;28;20481;-69
2023/12/07 11:14:11;;;;;;;114.82;18.48;;;1.30;99.90;;;;;;5072333;28;20123;-70
2023/12/07 11:16:39;;;;;;;149.40;19.17;;;1.30;99.90;;;;;;5073789;28;20032;-70
2023/12/07 11:19:05;;;;;;;144.05;20.40;;;1.30;99.90;;;;;;5073824;28;20051;-70
2023/12/07 11:21:31;;;;;;;129.23;19.77;;;1.30;99.90;;;;;;5072072;28;20045;-70
2023/12/07 11:24:01;;;;;;;104.10;18.48;;;1.30;99.90;;;;;;5073875;28;20047;-70
2023/12/07 11:26:27;;;;;;;96.38;20.65;;;1.30;99.90;;;;;;5073780;28;20036;-70
2023/12/07 11:28:55;;;;;;;62.15;18.27;;;1.30;99.90;;;;;;5073753;28;20044;-70
2023/12/07 11:31:21;;;;;;;81.63;18.77;;;1.50;99.90;;;;;;5072820;28;20040;-70
2023/12/07 11:33:47;;;;;;;100.00;19.15;;;1.40;99.90;;;;;;5072192;28;20118;-70
2023/12/07 11:36:13;;;;;;;89.55;17.65;;;1.50;99.90;;;;;;5072027;28;20045;-70
2023/12/07 11:39:09;;;;;;;106.60;19.52;;;1.50;99.90;;;;;;5072114;28;20602;-69
2023/12/07 11:41:43;;;;;;;104.38;19.15;;;1.50;99.90;;;;;;5055321;28;20037;-69
2023/12/07 11:44:09;;;;;;;71.43;18.65;;;1.40;99.90;;;;;;5072064;28;20051;-69
2023/12/07 11:46:36;;;;;;;105.32;19.90;;;1.50;99.90;;;;;;5071917;28;20155;-70
2023/12/07 11:49:02;;;;;;;105.18;19.52;;;1.50;99.90;;;;;;5071965;28;20041;-70
2023/12/07 11:51:29;;;;;;;117.97;20.40;;;1.40;99.90;;;;;;5073023;28;20043;-69
2023/12/07 11:53:55;;;;;;;158.10;20.90;;;1.40;99.90;;;;;;5073162;28;20037;-69
2023/12/07 11:56:21;;;;;;;91.85;19.90;;;1.50;99.90;;;;;;5073278;28;20136;-69
2023/12/07 11:58:47;;;;;;;84.05;20.10;;;1.40;99.90;;;;;;5071824;28;20517;-69
2023/12/07 12:01:13;;;;;;;78.10;20.30;;;1.40;99.90;;;;;;5071748;28;20059;-70
2023/12/07 12:03:38;;;;;;;98.38;19.83;;;1.50;99.90;;;;;;5070939;28;20044;-70
2023/12/07 12:06:07;;;;;;;119.30;22.35;;;1.50;99.90;;;;;;5071795;28;20051;-69
2023/12/07 12:08:33;;;;;;;74.53;19.48;;;1.60;99.90;;;;;;5071765;28;20081;-69
2023/12/07 12:10:59;;;;;;;60.83;20.33;;;1.50;99.90;;;;;;5073179;28;20048;-69
2023/12/07 12:13:29;;;;;;;73.97;20.77;;;1.50;99.90;;;;;;5071730;28;20044;-69
2023/12/07 12:15:56;;;;;;;70.38;20.88;;;1.60;99.90;;;;;;5071624;28;20051;-69
2023/12/07 12:18:22;;;;;;;97.82;22.00;;;1.60;99.90;;;;;;5072612;28;20036;-69
2023/12/07 12:20:51;;;;;;;118.97;22.90;;;1.60;99.90;;;;;;5071850;28;20485;-69
2023/12/07 12:23:16;;;;;;;85.53;22.17;;;1.60;99.90;;;;;;5071432;28;20044;-70
2023/12/07 12:25:43;;;;;;;76.38;20.77;;;1.40;99.90;;;;;;5071852;28;20047;-70
2023/12/07 12:28:09;;;;;;;89.65;21.85;;;1.40;99.90;;;;;;5071802;28;20076;-70
2023/12/07 12:30:36;;;;;;;45.28;19.90;;;1.40;99.90;;;;;;5073013;28;20107;-69
2023/12/07 12:33:01;;;;;;;100.97;22.02;;;1.50;99.90;;;;;;5071524;28;20041;-69